Aérodrome :
LOGIN :

S'inscrire | Disclaimer

   EN    FR    IT 

 










Légende :    VFR   VFR Marginal   IFR   IFR Intensif   IFR Très Intensif
Visi : 
Plafond : 
>= 8 km
>= 3000ft
5 à 8 km
1000 à 3000 ft
1500m à 5 km
500 à 1000 ft
800 à 1500m
200 à 500 ft
< 800m
< 200 ft
Symboles :   Orages  Brouillard  Fortes neiges  Fortes précipitations  Vent > 20 kt
SIGMETs :   Divers  Orages  Givrage  Turbulence  Onde Orograph.  Cendres Volcan.







- Altitude de l'aérodrome : 194 ft
- Code IATA : LME
- Voir les cartes d'approche


LFRM - Le Mans

DERNIER METAR :
  • 231600Z AUTO 26006KT 200V320 9999 FEW019 SCT034 BKN046 12/09 Q1008 NOSIG

METARs EXPIRÉS :
  • 231530Z AUTO 25006KT 9999 FEW014 SCT046 OVC056 12/09 Q1007 NOSIG
  • 231500Z AUTO 26007KT 220V290 9999 FEW015 BKN036 OVC044 11/09 Q1007 TEMPO 25015G27KT
  • 231430Z AUTO 27010KT 220V300 5000 -RA BR BKN008 BKN019 OVC035 11/09 Q1007 TEMPO 25015G27KT BECMG BKN020
  • 231400Z AUTO 24011KT 190V270 8000 -RADZ BKN010 OVC014 11/09 Q1007 TEMPO 24016G30KT 3000 RADZ BECMG BKN020
  • 231330Z AUTO 23014KT 200V270 9000 -RA OVC015 11/09 Q1007 TEMPO 24016G30KT 3000 RADZ BKN004
  • 231300Z AUTO 23014G26KT 210V270 9999 OVC018 12/08 Q1007 TEMPO 3000 RADZ BKN004

TAF TAF LFRM
Valide du 23 à 15h jusqu'au 24 à 00h UTC


231400Z 2315/2324 25015G27KT 9999 BKN020
BECMG 2316/2318 27010KT
Pas de NOTAMs connus pour ce terrain.
2 SIGMETs publiés pour la FIR Paris (LFFF) :
 
Turbulence forte
LFFF SIGMET 4 VALID 231600/232000 LFPW
LFFF PARIS FIR/UIR SEV TURB FCST N OF N4830 SFC/FL050 MOV NE 25KT WKN=
Turbulence forte
LFFF SIGMET 3 VALID 231300/231600 LFPW
LFFF PARIS FIR/UIR SEV TURB FCST N OF LINE N4815 W00015 - N4745 E00445 SFC/FL050 MOV NE 20KT NC=



MET'MAP, la Météo Aéronautique d'un coup d'oeil ! - Copyright ORBIFLY Décembre 2007 - Disclaimer

ORBIFLY MET'MAP TEAM :

Programmation & Développement : Alexandra Zaïnal
Conception & Développement : Baudouin d'Aumeries
Co-Programmation & Développement : Marc-Olivier Méhu
Soutien technique & logistique : Manuel Goepfert

Contact : metmap@orbifly.com




SOURCES & CREDITS :

   NOAA